sensor_id;sensor_type;location;lat;lon;timestamp;P1;durP1;ratioP1;P2;durP2;ratioP2
37203;SDS011;23098;48.054;10.636;2023-03-02T00:04:05;37.60;;;15.70;;
37203;SDS011;23098;48.054;10.636;2023-03-02T00:06:34;36.30;;;15.95;;
37203;SDS011;23098;48.054;10.636;2023-03-02T00:09:00;31.33;;;15.00;;
37203;SDS011;23098;48.054;10.636;2023-03-02T00:11:28;18.13;;;8.27;;
37203;SDS011;23098;48.054;10.636;2023-03-02T00:13:55;32.58;;;13.57;;
37203;SDS011;23098;48.054;10.636;2023-03-02T00:16:21;33.38;;;16.15;;
37203;SDS011;23098;48.054;10.636;2023-03-02T00:18:47;36.13;;;15.18;;
37203;SDS011;23098;48.054;10.636;2023-03-02T00:21:12;33.88;;;15.07;;
37203;SDS011;23098;48.054;10.636;2023-03-02T00:23:38;22.35;;;10.98;;
37203;SDS011;23098;48.054;10.636;2023-03-02T00:26:04;27.70;;;11.95;;
37203;SDS011;23098;48.054;10.636;2023-03-02T00:28:30;28.77;;;12.25;;
37203;SDS011;23098;48.054;10.636;2023-03-02T00:30:56;21.83;;;6.93;;
37203;SDS011;23098;48.054;10.636;2023-03-02T00:33:22;21.20;;;10.73;;
37203;SDS011;23098;48.054;10.636;2023-03-02T00:35:47;26.60;;;13.55;;
37203;SDS011;23098;48.054;10.636;2023-03-02T00:38:13;28.10;;;11.18;;
37203;SDS011;23098;48.054;10.636;2023-03-02T00:40:47;18.27;;;8.48;;
37203;SDS011;23098;48.054;10.636;2023-03-02T00:43:13;11.73;;;6.57;;
37203;SDS011;23098;48.054;10.636;2023-03-02T00:45:40;32.00;;;13.50;;
37203;SDS011;23098;48.054;10.636;2023-03-02T00:48:06;26.00;;;10.57;;
37203;SDS011;23098;48.054;10.636;2023-03-02T00:50:32;36.67;;;14.90;;
37203;SDS011;23098;48.054;10.636;2023-03-02T00:52:57;30.20;;;13.73;;
37203;SDS011;23098;48.054;10.636;2023-03-02T00:55:23;29.13;;;13.93;;
37203;SDS011;23098;48.054;10.636;2023-03-02T00:57:52;19.95;;;9.93;;
37203;SDS011;23098;48.054;10.636;2023-03-02T01:00:21;25.55;;;12.65;;
37203;SDS011;23098;48.054;10.636;2023-03-02T01:02:48;25.25;;;9.93;;
37203;SDS011;23098;48.054;10.636;2023-03-02T01:05:15;15.93;;;7.90;;
37203;SDS011;23098;48.054;10.636;2023-03-02T01:07:41;28.35;;;13.25;;
37203;SDS011;23098;48.054;10.636;2023-03-02T01:10:16;28.70;;;13.43;;
37203;SDS011;23098;48.054;10.636;2023-03-02T01:12:49;20.38;;;9.43;;
37203;SDS011;23098;48.054;10.636;2023-03-02T01:15:15;15.43;;;7.05;;
37203;SDS011;23098;48.054;10.636;2023-03-02T01:17:40;29.73;;;15.00;;
37203;SDS011;23098;48.054;10.636;2023-03-02T01:20:08;29.63;;;14.00;;
37203;SDS011;23098;48.054;10.636;2023-03-02T01:22:34;35.05;;;13.73;;
37203;SDS011;23098;48.054;10.636;2023-03-02T01:25:00;20.58;;;8.57;;
37203;SDS011;23098;48.054;10.636;2023-03-02T01:27:26;26.17;;;12.20;;
37203;SDS011;23098;48.054;10.636;2023-03-02T01:29:51;31.05;;;13.43;;
37203;SDS011;23098;48.054;10.636;2023-03-02T01:32:17;32.92;;;12.88;;
37203;SDS011;23098;48.054;10.636;2023-03-02T01:34:42;29.52;;;13.75;;
37203;SDS011;23098;48.054;10.636;2023-03-02T01:37:08;26.83;;;9.68;;
37203;SDS011;23098;48.054;10.636;2023-03-02T01:39:33;24.27;;;10.10;;
37203;SDS011;23098;48.054;10.636;2023-03-02T01:41:59;31.80;;;15.02;;
37203;SDS011;23098;48.054;10.636;2023-03-02T01:47:23;30.25;;;14.02;;
37203;SDS011;23098;48.054;10.636;2023-03-02T01:52:25;17.67;;;8.52;;
37203;SDS011;23098;48.054;10.636;2023-03-02T01:54:52;34.08;;;13.40;;
37203;SDS011;23098;48.054;10.636;2023-03-02T01:57:22;26.98;;;12.27;;
37203;SDS011;23098;48.054;10.636;2023-03-02T01:59:52;20.85;;;9.32;;
37203;SDS011;23098;48.054;10.636;2023-03-02T02:02:21;29.25;;;13.35;;
37203;SDS011;23098;48.054;10.636;2023-03-02T02:04:47;30.05;;;12.80;;
37203;SDS011;23098;48.054;10.636;2023-03-02T02:07:14;31.23;;;13.93;;
37203;SDS011;23098;48.054;10.636;2023-03-02T02:09:43;32.10;;;12.80;;
37203;SDS011;23098;48.054;10.636;2023-03-02T02:12:16;27.10;;;13.48;;
37203;SDS011;23098;48.054;10.636;2023-03-02T02:14:43;31.15;;;13.13;;
37203;SDS011;23098;48.054;10.636;2023-03-02T02:17:10;31.13;;;13.32;;
37203;SDS011;23098;48.054;10.636;2023-03-02T02:19:40;21.10;;;9.00;;
37203;SDS011;23098;48.054;10.636;2023-03-02T02:22:29;29.20;;;13.15;;
37203;SDS011;23098;48.054;10.636;2023-03-02T02:24:57;35.53;;;15.43;;
37203;SDS011;23098;48.054;10.636;2023-03-02T02:27:27;31.98;;;14.40;;
37203;SDS011;23098;48.054;10.636;2023-03-02T02:29:57;30.92;;;13.25;;
37203;SDS011;23098;48.054;10.636;2023-03-02T02:32:27;28.83;;;12.85;;
37203;SDS011;23098;48.054;10.636;2023-03-02T02:37:45;27.80;;;13.13;;
37203;SDS011;23098;48.054;10.636;2023-03-02T02:40:36;30.50;;;13.35;;
37203;SDS011;23098;48.054;10.636;2023-03-02T02:43:06;32.83;;;14.73;;
37203;SDS011;23098;48.054;10.636;2023-03-02T02:45:33;24.77;;;10.88;;
37203;SDS011;23098;48.054;10.636;2023-03-02T02:48:00;23.38;;;11.60;;
37203;SDS011;23098;48.054;10.636;2023-03-02T02:50:27;25.13;;;10.48;;
37203;SDS011;23098;48.054;10.636;2023-03-02T02:53:15;32.75;;;14.32;;
37203;SDS011;23098;48.054;10.636;2023-03-02T02:55:45;30.33;;;14.85;;
37203;SDS011;23098;48.054;10.636;2023-03-02T02:58:21;30.25;;;13.50;;
37203;SDS011;23098;48.054;10.636;2023-03-02T03:00:49;31.77;;;13.82;;
37203;SDS011;23098;48.054;10.636;2023-03-02T03:03:23;25.27;;;10.60;;
37203;SDS011;23098;48.054;10.636;2023-03-02T03:05:54;17.13;;;6.82;;
37203;SDS011;23098;48.054;10.636;2023-03-02T03:11:06;35.30;;;16.27;;
37203;SDS011;23098;48.054;10.636;2023-03-02T03:13:32;32.28;;;14.40;;
37203;SDS011;23098;48.054;10.636;2023-03-02T03:15:58;29.60;;;13.50;;
37203;SDS011;23098;48.054;10.636;2023-03-02T03:18:26;23.27;;;10.98;;
37203;SDS011;23098;48.054;10.636;2023-03-02T03:20:52;37.70;;;14.75;;
37203;SDS011;23098;48.054;10.636;2023-03-02T03:23:18;29.15;;;13.57;;
37203;SDS011;23098;48.054;10.636;2023-03-02T03:25:44;24.20;;;8.55;;
37203;SDS011;23098;48.054;10.636;2023-03-02T03:28:09;35.92;;;16.55;;
37203;SDS011;23098;48.054;10.636;2023-03-02T03:30:35;42.67;;;19.25;;
37203;SDS011;23098;48.054;10.636;2023-03-02T03:33:00;48.78;;;20.95;;
37203;SDS011;23098;48.054;10.636;2023-03-02T03:35:26;23.13;;;10.68;;
37203;SDS011;23098;48.054;10.636;2023-03-02T03:37:51;42.90;;;17.20;;
37203;SDS011;23098;48.054;10.636;2023-03-02T03:40:17;42.70;;;18.65;;
37203;SDS011;23098;48.054;10.636;2023-03-02T03:42:42;45.15;;;20.13;;
37203;SDS011;23098;48.054;10.636;2023-03-02T03:45:08;31.27;;;14.38;;
37203;SDS011;23098;48.054;10.636;2023-03-02T03:47:34;49.97;;;21.27;;
37203;SDS011;23098;48.054;10.636;2023-03-02T03:50:00;31.08;;;13.75;;
37203;SDS011;23098;48.054;10.636;2023-03-02T03:52:25;43.28;;;18.88;;
37203;SDS011;23098;48.054;10.636;2023-03-02T03:54:55;50.53;;;20.73;;
37203;SDS011;23098;48.054;10.636;2023-03-02T03:57:24;35.90;;;15.82;;
37203;SDS011;23098;48.054;10.636;2023-03-02T03:59:50;47.10;;;19.17;;
37203;SDS011;23098;48.054;10.636;2023-03-02T04:02:16;40.35;;;17.02;;
37203;SDS011;23098;48.054;10.636;2023-03-02T04:04:42;49.85;;;21.00;;
37203;SDS011;23098;48.054;10.636;2023-03-02T04:07:09;32.10;;;14.00;;
37203;SDS011;23098;48.054;10.636;2023-03-02T04:09:34;47.90;;;21.95;;
37203;SDS011;23098;48.054;10.636;2023-03-02T04:12:02;48.05;;;20.58;;
37203;SDS011;23098;48.054;10.636;2023-03-02T04:14:28;36.55;;;16.13;;
37203;SDS011;23098;48.054;10.636;2023-03-02T04:16:54;50.63;;;21.30;;
37203;SDS011;23098;48.054;10.636;2023-03-02T04:19:20;55.92;;;22.33;;
37203;SDS011;23098;48.054;10.636;2023-03-02T04:21:48;41.63;;;18.80;;
37203;SDS011;23098;48.054;10.636;2023-03-02T04:24:16;45.95;;;19.10;;
37203;SDS011;23098;48.054;10.636;2023-03-02T04:26:43;34.70;;;15.10;;
37203;SDS011;23098;48.054;10.636;2023-03-02T04:29:09;41.35;;;16.48;;
37203;SDS011;23098;48.054;10.636;2023-03-02T04:31:35;54.17;;;22.33;;
37203;SDS011;23098;48.054;10.636;2023-03-02T04:34:01;36.60;;;13.77;;
37203;SDS011;23098;48.054;10.636;2023-03-02T04:36:28;45.92;;;20.42;;
37203;SDS011;23098;48.054;10.636;2023-03-02T04:38:54;44.78;;;19.65;;
37203;SDS011;23098;48.054;10.636;2023-03-02T04:41:19;24.88;;;10.25;;
37203;SDS011;23098;48.054;10.636;2023-03-02T04:43:45;21.02;;;9.55;;
37203;SDS011;23098;48.054;10.636;2023-03-02T04:46:13;33.63;;;13.90;;
37203;SDS011;23098;48.054;10.636;2023-03-02T04:48:42;50.63;;;21.80;;
37203;SDS011;23098;48.054;10.636;2023-03-02T04:51:09;36.63;;;15.02;;
37203;SDS011;23098;48.054;10.636;2023-03-02T04:53:42;20.52;;;9.45;;
37203;SDS011;23098;48.054;10.636;2023-03-02T04:56:07;59.65;;;22.52;;
37203;SDS011;23098;48.054;10.636;2023-03-02T04:58:33;41.53;;;18.23;;
37203;SDS011;23098;48.054;10.636;2023-03-02T05:00:58;56.88;;;23.05;;
37203;SDS011;23098;48.054;10.636;2023-03-02T05:03:27;48.15;;;18.90;;
37203;SDS011;23098;48.054;10.636;2023-03-02T05:05:53;56.88;;;21.63;;
37203;SDS011;23098;48.054;10.636;2023-03-02T05:08:18;55.10;;;19.88;;
37203;SDS011;23098;48.054;10.636;2023-03-02T05:10:44;46.50;;;19.33;;
37203;SDS011;23098;48.054;10.636;2023-03-02T05:13:09;53.47;;;19.38;;
37203;SDS011;23098;48.054;10.636;2023-03-02T05:15:37;47.28;;;20.00;;
37203;SDS011;23098;48.054;10.636;2023-03-02T05:18:05;51.90;;;20.42;;
37203;SDS011;23098;48.054;10.636;2023-03-02T05:20:34;46.55;;;21.52;;
37203;SDS011;23098;48.054;10.636;2023-03-02T05:23:00;38.35;;;17.02;;
37203;SDS011;23098;48.054;10.636;2023-03-02T05:25:30;47.53;;;21.08;;
37203;SDS011;23098;48.054;10.636;2023-03-02T05:27:58;58.20;;;22.23;;
37203;SDS011;23098;48.054;10.636;2023-03-02T05:30:24;47.85;;;20.95;;
37203;SDS011;23098;48.054;10.636;2023-03-02T05:32:50;47.08;;;19.58;;
37203;SDS011;23098;48.054;10.636;2023-03-02T05:35:17;58.08;;;22.70;;
37203;SDS011;23098;48.054;10.636;2023-03-02T05:37:43;53.60;;;20.55;;
37203;SDS011;23098;48.054;10.636;2023-03-02T05:40:09;40.65;;;17.63;;
37203;SDS011;23098;48.054;10.636;2023-03-02T05:42:37;60.40;;;20.83;;
37203;SDS011;23098;48.054;10.636;2023-03-02T05:45:04;54.40;;;22.83;;
37203;SDS011;23098;48.054;10.636;2023-03-02T05:47:30;56.88;;;22.42;;
37203;SDS011;23098;48.054;10.636;2023-03-02T05:49:56;54.72;;;22.60;;
37203;SDS011;23098;48.054;10.636;2023-03-02T05:52:23;48.55;;;19.60;;
37203;SDS011;23098;48.054;10.636;2023-03-02T05:54:48;52.83;;;18.23;;
37203;SDS011;23098;48.054;10.636;2023-03-02T05:57:14;53.90;;;22.40;;
37203;SDS011;23098;48.054;10.636;2023-03-02T05:59:40;37.03;;;15.48;;
37203;SDS011;23098;48.054;10.636;2023-03-02T06:02:05;53.65;;;19.80;;
37203;SDS011;23098;48.054;10.636;2023-03-02T06:04:31;52.67;;;19.67;;
37203;SDS011;23098;48.054;10.636;2023-03-02T06:06:56;23.08;;;10.48;;
37203;SDS011;23098;48.054;10.636;2023-03-02T06:09:22;38.70;;;15.00;;
37203;SDS011;23098;48.054;10.636;2023-03-02T06:11:47;56.55;;;21.00;;
37203;SDS011;23098;48.054;10.636;2023-03-02T06:14:13;63.85;;;24.80;;
37203;SDS011;23098;48.054;10.636;2023-03-02T06:16:39;59.83;;;21.75;;
37203;SDS011;23098;48.054;10.636;2023-03-02T06:19:04;66.35;;;24.25;;
37203;SDS011;23098;48.054;10.636;2023-03-02T06:21:30;65.35;;;24.85;;
37203;SDS011;23098;48.054;10.636;2023-03-02T06:23:56;56.90;;;21.20;;
37203;SDS011;23098;48.054;10.636;2023-03-02T06:26:21;62.88;;;21.85;;
37203;SDS011;23098;48.054;10.636;2023-03-02T06:28:48;68.18;;;23.83;;
37203;SDS011;23098;48.054;10.636;2023-03-02T06:31:14;46.83;;;19.55;;
37203;SDS011;23098;48.054;10.636;2023-03-02T06:33:39;55.50;;;22.67;;
37203;SDS011;23098;48.054;10.636;2023-03-02T06:36:06;61.42;;;20.17;;
37203;SDS011;23098;48.054;10.636;2023-03-02T06:38:32;48.08;;;19.20;;
37203;SDS011;23098;48.054;10.636;2023-03-02T06:40:57;57.92;;;21.15;;
37203;SDS011;23098;48.054;10.636;2023-03-02T06:43:24;53.40;;;21.63;;
37203;SDS011;23098;48.054;10.636;2023-03-02T06:45:49;59.92;;;22.25;;
37203;SDS011;23098;48.054;10.636;2023-03-02T06:48:15;57.63;;;21.92;;
37203;SDS011;23098;48.054;10.636;2023-03-02T06:50:41;61.72;;;21.50;;
37203;SDS011;23098;48.054;10.636;2023-03-02T06:53:07;50.70;;;21.00;;
37203;SDS011;23098;48.054;10.636;2023-03-02T06:55:32;62.78;;;23.48;;
37203;SDS011;23098;48.054;10.636;2023-03-02T06:57:58;58.03;;;20.48;;
37203;SDS011;23098;48.054;10.636;2023-03-02T07:00:23;55.53;;;21.88;;
37203;SDS011;23098;48.054;10.636;2023-03-02T07:02:51;61.50;;;21.25;;
37203;SDS011;23098;48.054;10.636;2023-03-02T07:05:21;62.22;;;21.20;;
37203;SDS011;23098;48.054;10.636;2023-03-02T07:07:48;56.78;;;20.92;;
37203;SDS011;23098;48.054;10.636;2023-03-02T07:10:14;60.72;;;22.67;;
37203;SDS011;23098;48.054;10.636;2023-03-02T07:12:40;56.70;;;21.95;;
37203;SDS011;23098;48.054;10.636;2023-03-02T07:15:06;49.03;;;19.40;;
37203;SDS011;23098;48.054;10.636;2023-03-02T07:17:36;57.13;;;21.48;;
37203;SDS011;23098;48.054;10.636;2023-03-02T07:20:03;56.00;;;19.35;;
37203;SDS011;23098;48.054;10.636;2023-03-02T07:22:30;56.78;;;22.17;;
37203;SDS011;23098;48.054;10.636;2023-03-02T07:24:56;55.05;;;22.05;;
37203;SDS011;23098;48.054;10.636;2023-03-02T07:27:21;64.25;;;22.75;;
37203;SDS011;23098;48.054;10.636;2023-03-02T07:29:47;53.25;;;20.63;;
37203;SDS011;23098;48.054;10.636;2023-03-02T07:32:12;59.70;;;22.88;;
37203;SDS011;23098;48.054;10.636;2023-03-02T07:34:38;53.40;;;19.50;;
37203;SDS011;23098;48.054;10.636;2023-03-02T07:37:03;42.10;;;15.45;;
37203;SDS011;23098;48.054;10.636;2023-03-02T07:39:29;44.10;;;17.63;;
37203;SDS011;23098;48.054;10.636;2023-03-02T07:41:58;57.65;;;20.67;;
37203;SDS011;23098;48.054;10.636;2023-03-02T07:44:25;57.60;;;22.52;;
37203;SDS011;23098;48.054;10.636;2023-03-02T07:46:52;52.42;;;19.20;;
37203;SDS011;23098;48.054;10.636;2023-03-02T07:49:18;56.17;;;21.20;;
37203;SDS011;23098;48.054;10.636;2023-03-02T07:51:44;54.13;;;19.88;;
37203;SDS011;23098;48.054;10.636;2023-03-02T07:54:09;52.65;;;20.85;;
37203;SDS011;23098;48.054;10.636;2023-03-02T07:56:35;48.08;;;18.50;;
37203;SDS011;23098;48.054;10.636;2023-03-02T07:59:00;54.53;;;19.65;;
37203;SDS011;23098;48.054;10.636;2023-03-02T08:01:26;53.17;;;21.48;;
37203;SDS011;23098;48.054;10.636;2023-03-02T08:03:52;58.17;;;21.27;;
37203;SDS011;23098;48.054;10.636;2023-03-02T08:06:18;59.60;;;22.00;;
37203;SDS011;23098;48.054;10.636;2023-03-02T08:08:44;49.92;;;18.85;;
37203;SDS011;23098;48.054;10.636;2023-03-02T08:11:10;61.40;;;24.27;;
37203;SDS011;23098;48.054;10.636;2023-03-02T08:13:38;51.58;;;18.17;;
37203;SDS011;23098;48.054;10.636;2023-03-02T08:16:04;58.80;;;20.20;;
37203;SDS011;23098;48.054;10.636;2023-03-02T08:18:32;57.45;;;20.25;;
37203;SDS011;23098;48.054;10.636;2023-03-02T08:20:58;59.88;;;22.48;;
37203;SDS011;23098;48.054;10.636;2023-03-02T08:23:24;55.97;;;20.38;;
37203;SDS011;23098;48.054;10.636;2023-03-02T08:25:51;53.90;;;20.90;;
37203;SDS011;23098;48.054;10.636;2023-03-02T08:28:18;54.80;;;20.08;;
37203;SDS011;23098;48.054;10.636;2023-03-02T08:30:44;60.42;;;22.35;;
37203;SDS011;23098;48.054;10.636;2023-03-02T08:33:19;61.33;;;22.65;;
37203;SDS011;23098;48.054;10.636;2023-03-02T08:35:52;62.80;;;23.77;;
37203;SDS011;23098;48.054;10.636;2023-03-02T08:38:19;53.20;;;21.08;;
37203;SDS011;23098;48.054;10.636;2023-03-02T08:40:45;52.60;;;19.90;;
37203;SDS011;23098;48.054;10.636;2023-03-02T08:43:10;56.80;;;23.13;;
37203;SDS011;23098;48.054;10.636;2023-03-02T08:45:36;58.80;;;21.75;;
37203;SDS011;23098;48.054;10.636;2023-03-02T08:48:01;52.85;;;21.70;;
37203;SDS011;23098;48.054;10.636;2023-03-02T08:50:27;50.92;;;19.33;;
37203;SDS011;23098;48.054;10.636;2023-03-02T08:52:52;54.92;;;21.42;;
37203;SDS011;23098;48.054;10.636;2023-03-02T08:55:18;51.30;;;20.98;;
37203;SDS011;23098;48.054;10.636;2023-03-02T08:57:43;55.13;;;22.35;;
37203;SDS011;23098;48.054;10.636;2023-03-02T09:00:09;48.30;;;19.55;;
37203;SDS011;23098;48.054;10.636;2023-03-02T09:02:38;51.97;;;20.00;;
37203;SDS011;23098;48.054;10.636;2023-03-02T09:05:05;49.97;;;20.08;;
37203;SDS011;23098;48.054;10.636;2023-03-02T09:07:30;48.97;;;19.08;;
37203;SDS011;23098;48.054;10.636;2023-03-02T09:09:56;57.10;;;21.75;;
37203;SDS011;23098;48.054;10.636;2023-03-02T09:12:21;55.72;;;20.08;;
37203;SDS011;23098;48.054;10.636;2023-03-02T09:14:47;47.13;;;19.48;;
37203;SDS011;23098;48.054;10.636;2023-03-02T09:17:13;54.60;;;21.25;;
37203;SDS011;23098;48.054;10.636;2023-03-02T09:19:39;49.50;;;19.83;;
37203;SDS011;23098;48.054;10.636;2023-03-02T09:22:09;52.30;;;20.35;;
37203;SDS011;23098;48.054;10.636;2023-03-02T09:24:35;48.47;;;19.98;;
37203;SDS011;23098;48.054;10.636;2023-03-02T09:27:01;54.15;;;22.50;;
37203;SDS011;23098;48.054;10.636;2023-03-02T09:29:27;42.75;;;18.23;;
37203;SDS011;23098;48.054;10.636;2023-03-02T09:31:53;55.38;;;19.63;;
37203;SDS011;23098;48.054;10.636;2023-03-02T09:34:19;51.38;;;21.42;;
37203;SDS011;23098;48.054;10.636;2023-03-02T09:36:44;47.78;;;20.00;;
37203;SDS011;23098;48.054;10.636;2023-03-02T09:39:10;50.85;;;20.38;;
37203;SDS011;23098;48.054;10.636;2023-03-02T09:47:17;45.90;;;19.38;;
37203;SDS011;23098;48.054;10.636;2023-03-02T09:53:00;49.20;;;19.10;;
37203;SDS011;23098;48.054;10.636;2023-03-02T09:55:34;47.40;;;19.48;;
37203;SDS011;23098;48.054;10.636;2023-03-02T09:58:05;47.63;;;18.77;;
37203;SDS011;23098;48.054;10.636;2023-03-02T10:00:39;55.63;;;20.83;;
37203;SDS011;23098;48.054;10.636;2023-03-02T10:03:13;50.97;;;21.08;;
37203;SDS011;23098;48.054;10.636;2023-03-02T10:05:52;47.13;;;18.63;;
37203;SDS011;23098;48.054;10.636;2023-03-02T10:08:20;42.47;;;18.92;;
37203;SDS011;23098;48.054;10.636;2023-03-02T10:13:47;42.63;;;19.02;;
37203;SDS011;23098;48.054;10.636;2023-03-02T10:17:01;49.15;;;20.27;;
37203;SDS011;23098;48.054;10.636;2023-03-02T10:19:19;44.78;;;18.58;;
37203;SDS011;23098;48.054;10.636;2023-03-02T10:21:53;46.35;;;19.15;;
37203;SDS011;23098;48.054;10.636;2023-03-02T10:27:23;43.53;;;19.17;;
37203;SDS011;23098;48.054;10.636;2023-03-02T10:30:27;47.85;;;19.45;;
37203;SDS011;23098;48.054;10.636;2023-03-02T10:32:58;44.70;;;19.45;;
37203;SDS011;23098;48.054;10.636;2023-03-02T10:35:28;44.70;;;19.80;;
37203;SDS011;23098;48.054;10.636;2023-03-02T10:38:00;44.17;;;19.90;;
37203;SDS011;23098;48.054;10.636;2023-03-02T10:40:41;40.35;;;19.27;;
37203;SDS011;23098;48.054;10.636;2023-03-02T10:43:13;40.25;;;16.90;;
37203;SDS011;23098;48.054;10.636;2023-03-02T10:45:42;41.17;;;17.70;;
37203;SDS011;23098;48.054;10.636;2023-03-02T10:48:10;38.30;;;17.30;;
37203;SDS011;23098;48.054;10.636;2023-03-02T10:50:37;45.65;;;18.85;;
37203;SDS011;23098;48.054;10.636;2023-03-02T10:53:07;37.65;;;18.25;;
37203;SDS011;23098;48.054;10.636;2023-03-02T10:55:43;42.97;;;17.17;;
37203;SDS011;23098;48.054;10.636;2023-03-02T10:58:19;38.83;;;16.77;;
37203;SDS011;23098;48.054;10.636;2023-03-02T11:01:00;42.58;;;18.35;;
37203;SDS011;23098;48.054;10.636;2023-03-02T11:03:31;40.58;;;17.25;;
37203;SDS011;23098;48.054;10.636;2023-03-02T11:05:57;41.38;;;17.77;;
37203;SDS011;23098;48.054;10.636;2023-03-02T11:08:34;43.55;;;18.13;;
37203;SDS011;23098;48.054;10.636;2023-03-02T11:11:01;41.10;;;18.00;;
37203;SDS011;23098;48.054;10.636;2023-03-02T11:15:58;38.72;;;17.13;;
37203;SDS011;23098;48.054;10.636;2023-03-02T11:18:37;44.22;;;19.00;;
37203;SDS011;23098;48.054;10.636;2023-03-02T11:21:07;39.15;;;17.90;;
37203;SDS011;23098;48.054;10.636;2023-03-02T11:23:40;43.08;;;19.73;;
37203;SDS011;23098;48.054;10.636;2023-03-02T11:26:25;38.38;;;18.20;;
37203;SDS011;23098;48.054;10.636;2023-03-02T11:29:11;44.88;;;20.50;;
37203;SDS011;23098;48.054;10.636;2023-03-02T11:31:55;43.80;;;21.48;;
37203;SDS011;23098;48.054;10.636;2023-03-02T11:34:28;43.90;;;18.77;;
37203;SDS011;23098;48.054;10.636;2023-03-02T11:39:59;43.35;;;20.23;;
37203;SDS011;23098;48.054;10.636;2023-03-02T11:42:35;46.45;;;19.73;;
37203;SDS011;23098;48.054;10.636;2023-03-02T11:47:39;40.42;;;18.40;;
37203;SDS011;23098;48.054;10.636;2023-03-02T11:50:10;48.30;;;20.73;;
37203;SDS011;23098;48.054;10.636;2023-03-02T11:52:38;45.08;;;19.58;;
37203;SDS011;23098;48.054;10.636;2023-03-02T11:55:20;43.85;;;19.40;;
37203;SDS011;23098;48.054;10.636;2023-03-02T11:57:52;44.15;;;18.67;;
37203;SDS011;23098;48.054;10.636;2023-03-02T12:00:37;49.33;;;21.95;;
37203;SDS011;23098;48.054;10.636;2023-03-02T12:08:53;44.28;;;22.88;;
37203;SDS011;23098;48.054;10.636;2023-03-02T12:11:36;43.35;;;21.15;;
37203;SDS011;23098;48.054;10.636;2023-03-02T12:14:05;46.03;;;20.48;;
37203;SDS011;23098;48.054;10.636;2023-03-02T12:17:47;47.78;;;20.17;;
37203;SDS011;23098;48.054;10.636;2023-03-02T12:19:51;43.30;;;20.60;;
37203;SDS011;23098;48.054;10.636;2023-03-02T12:22:26;49.05;;;25.60;;
37203;SDS011;23098;48.054;10.636;2023-03-02T12:25:23;40.78;;;20.67;;
37203;SDS011;23098;48.054;10.636;2023-03-02T12:27:52;37.30;;;18.52;;
37203;SDS011;23098;48.054;10.636;2023-03-02T12:35:28;41.20;;;17.98;;
37203;SDS011;23098;48.054;10.636;2023-03-02T12:41:29;46.88;;;20.85;;
37203;SDS011;23098;48.054;10.636;2023-03-02T12:44:15;45.13;;;20.60;;
37203;SDS011;23098;48.054;10.636;2023-03-02T12:47:09;42.35;;;18.42;;
37203;SDS011;23098;48.054;10.636;2023-03-02T12:49:47;46.58;;;23.17;;
37203;SDS011;23098;48.054;10.636;2023-03-02T12:52:18;41.85;;;19.58;;
37203;SDS011;23098;48.054;10.636;2023-03-02T12:55:00;45.63;;;20.27;;
37203;SDS011;23098;48.054;10.636;2023-03-02T12:57:31;35.10;;;19.45;;
37203;SDS011;23098;48.054;10.636;2023-03-02T13:00:01;44.45;;;21.27;;
37203;SDS011;23098;48.054;10.636;2023-03-02T13:02:28;51.83;;;25.67;;
37203;SDS011;23098;48.054;10.636;2023-03-02T13:04:56;41.78;;;19.75;;
37203;SDS011;23098;48.054;10.636;2023-03-02T13:07:43;37.13;;;17.45;;
37203;SDS011;23098;48.054;10.636;2023-03-02T13:10:39;37.67;;;18.30;;
37203;SDS011;23098;48.054;10.636;2023-03-02T13:15:51;39.83;;;19.55;;
37203;SDS011;23098;48.054;10.636;2023-03-02T13:18:25;39.10;;;18.63;;
37203;SDS011;23098;48.054;10.636;2023-03-02T13:20:55;48.08;;;23.15;;
37203;SDS011;23098;48.054;10.636;2023-03-02T13:23:22;60.42;;;26.10;;
37203;SDS011;23098;48.054;10.636;2023-03-02T13:25:50;51.40;;;25.08;;
37203;SDS011;23098;48.054;10.636;2023-03-02T13:28:24;49.88;;;24.25;;
37203;SDS011;23098;48.054;10.636;2023-03-02T13:30:57;42.78;;;23.02;;
37203;SDS011;23098;48.054;10.636;2023-03-02T13:33:27;37.42;;;19.08;;
37203;SDS011;23098;48.054;10.636;2023-03-02T13:35:54;40.95;;;21.20;;
37203;SDS011;23098;48.054;10.636;2023-03-02T13:38:21;41.05;;;21.00;;
37203;SDS011;23098;48.054;10.636;2023-03-02T13:40:51;39.67;;;18.40;;
37203;SDS011;23098;48.054;10.636;2023-03-02T13:43:18;41.25;;;20.52;;
37203;SDS011;23098;48.054;10.636;2023-03-02T13:46:23;40.15;;;20.33;;
37203;SDS011;23098;48.054;10.636;2023-03-02T13:48:53;42.70;;;19.05;;
37203;SDS011;23098;48.054;10.636;2023-03-02T13:51:22;44.55;;;19.13;;
37203;SDS011;23098;48.054;10.636;2023-03-02T13:53:57;47.85;;;21.98;;
37203;SDS011;23098;48.054;10.636;2023-03-02T13:56:34;46.25;;;19.38;;
37203;SDS011;23098;48.054;10.636;2023-03-02T13:59:07;47.00;;;21.08;;
37203;SDS011;23098;48.054;10.636;2023-03-02T14:01:37;50.65;;;22.42;;
37203;SDS011;23098;48.054;10.636;2023-03-02T14:04:02;49.80;;;21.52;;
37203;SDS011;23098;48.054;10.636;2023-03-02T14:06:28;49.42;;;21.33;;
37203;SDS011;23098;48.054;10.636;2023-03-02T14:08:55;51.00;;;21.85;;
37203;SDS011;23098;48.054;10.636;2023-03-02T14:11:20;47.30;;;20.17;;
37203;SDS011;23098;48.054;10.636;2023-03-02T14:13:53;43.75;;;19.27;;
37203;SDS011;23098;48.054;10.636;2023-03-02T14:16:19;53.63;;;21.23;;
37203;SDS011;23098;48.054;10.636;2023-03-02T14:18:49;44.47;;;18.80;;
37203;SDS011;23098;48.054;10.636;2023-03-02T14:23:46;42.28;;;18.58;;
37203;SDS011;23098;48.054;10.636;2023-03-02T14:28:56;47.90;;;20.77;;
37203;SDS011;23098;48.054;10.636;2023-03-02T14:31:55;41.63;;;19.00;;
37203;SDS011;23098;48.054;10.636;2023-03-02T14:34:24;46.78;;;21.25;;
37203;SDS011;23098;48.054;10.636;2023-03-02T14:36:51;32.28;;;14.65;;
37203;SDS011;23098;48.054;10.636;2023-03-02T14:39:22;52.58;;;21.13;;
37203;SDS011;23098;48.054;10.636;2023-03-02T14:41:51;51.45;;;19.23;;
37203;SDS011;23098;48.054;10.636;2023-03-02T14:44:18;45.47;;;18.13;;
37203;SDS011;23098;48.054;10.636;2023-03-02T14:46:43;46.35;;;18.58;;
37203;SDS011;23098;48.054;10.636;2023-03-02T14:49:10;44.30;;;18.33;;
37203;SDS011;23098;48.054;10.636;2023-03-02T14:51:36;44.22;;;19.35;;
37203;SDS011;23098;48.054;10.636;2023-03-02T14:54:05;48.08;;;19.92;;
37203;SDS011;23098;48.054;10.636;2023-03-02T14:56:33;47.78;;;20.35;;
37203;SDS011;23098;48.054;10.636;2023-03-02T14:58:59;37.92;;;15.82;;
37203;SDS011;23098;48.054;10.636;2023-03-02T15:01:24;51.35;;;19.60;;
37203;SDS011;23098;48.054;10.636;2023-03-02T15:03:50;47.22;;;20.73;;
37203;SDS011;23098;48.054;10.636;2023-03-02T15:06:26;51.28;;;18.80;;
37203;SDS011;23098;48.054;10.636;2023-03-02T15:08:54;47.72;;;17.88;;
37203;SDS011;23098;48.054;10.636;2023-03-02T15:11:22;51.55;;;21.90;;
37203;SDS011;23098;48.054;10.636;2023-03-02T15:13:47;51.35;;;20.65;;
37203;SDS011;23098;48.054;10.636;2023-03-02T15:16:13;52.92;;;21.85;;
37203;SDS011;23098;48.054;10.636;2023-03-02T15:18:39;46.33;;;18.48;;